Time;durP1;ratioP1;P1;durP2;ratioP2;P2;SDS_P1;SDS_P2;PMS_P1;PMS_P2;Temp;Humidity;BMP_temperature;BMP_pressure;BME280_temperature;BME280_humidity;BME280_pressure;Samples;Min_cycle;Max_cycle;Signal;HPM_P1;HPM_P2
2022/04/06 00:00:20;;;;;;;7.50;2.05;;;;;;;3.14;58.38;99019.66;2082926;28;20786;-65
2022/04/06 00:01:22;;;;;;;5.55;2.00;;;;;;;3.28;57.91;99024.22;2074339;28;20295;-66
2022/04/06 00:02:28;;;;;;;6.82;2.08;;;;;;;3.26;58.29;99027.22;2073974;28;20308;-66
2022/04/06 00:03:35;;;;;;;9.20;2.38;;;;;;;3.23;58.05;99021.66;2083071;28;20295;-65
2022/04/06 00:04:40;;;;;;;7.05;1.95;;;;;;;3.05;58.53;99021.41;2091097;28;20356;-65
2022/04/06 00:05:44;;;;;;;4.65;1.88;;;;;;;3.33;57.83;99021.47;2082790;28;20291;-65
2022/04/06 00:06:52;;;;;;;7.57;2.30;;;;;;;3.28;57.90;99019.69;2074386;28;20293;-66
2022/04/06 00:07:54;;;;;;;6.90;2.00;;;;;;;3.24;57.90;99026.69;2074277;28;20642;-66
2022/04/06 00:08:56;;;;;;;2.72;2.00;;;;;;;3.23;58.34;99027.00;2073044;28;20301;-66
2022/04/06 00:10:01;;;;;;;5.75;1.60;;;;;;;3.16;58.26;99025.50;2090147;28;20290;-65
2022/04/06 00:11:03;;;;;;;5.93;2.03;;;;;;;3.29;58.05;99029.31;2089731;28;20783;-65
2022/04/06 00:12:10;;;;;;;4.55;2.17;;;;;;;3.46;57.75;99022.59;2089743;28;20288;-65
2022/04/06 00:13:13;;;;;;;4.75;1.90;;;;;;;3.43;57.81;99015.94;2098328;28;20290;-65
2022/04/06 00:14:16;;;;;;;7.68;2.10;;;;;;;3.38;57.65;99022.19;2089769;28;20296;-66
2022/04/06 00:15:21;;;;;;;5.20;2.10;;;;;;;3.46;57.42;99028.72;2090327;28;20767;-66
2022/04/06 00:16:30;;;;;;;5.07;1.63;;;;;;;3.46;57.68;99030.63;2090968;28;20299;-66
2022/04/06 00:17:34;;;;;;;4.57;2.20;;;;;;;3.40;57.49;99027.22;2089528;28;20299;-66
2022/04/06 00:18:39;;;;;;;4.72;1.92;;;;;;;3.31;58.27;99037.00;2089786;28;20279;-66
2022/04/06 00:19:42;;;;;;;5.15;2.25;;;;;;;3.54;57.89;99028.06;2081414;28;20295;-66
2022/04/06 00:20:44;;;;;;;7.60;2.63;;;;;;;3.55;57.17;99036.88;2081920;28;20292;-66
2022/04/06 00:21:53;;;;;;;4.22;1.80;;;;;;;3.58;57.31;99034.38;2090244;28;20296;-66
2022/04/06 00:22:56;;;;;;;5.28;1.75;;;;;;;3.49;57.01;99033.50;2097681;28;20349;-65
2022/04/06 00:24:01;;;;;;;3.42;1.80;;;;;;;3.40;57.64;99029.91;2098035;28;20302;-66
2022/04/06 00:25:05;;;;;;;5.57;1.90;;;;;;;3.45;57.42;99029.03;2097141;28;20291;-65
2022/04/06 00:26:07;;;;;;;7.45;2.40;;;;;;;3.49;57.36;99036.16;2089584;28;20322;-66
2022/04/06 00:27:12;;;;;;;10.30;2.30;;;;;;;3.50;57.63;99036.94;2089647;28;20290;-66
2022/04/06 00:28:16;;;;;;;2.88;1.60;;;;;;;3.57;56.88;99037.38;2098385;28;20290;-67
2022/04/06 00:29:18;;;;;;;4.13;1.73;;;;;;;3.19;57.83;99030.28;2105359;28;20290;-66
2022/04/06 00:30:24;;;;;;;5.45;2.20;;;;;;;3.39;57.61;99028.31;2089665;28;20651;-66
2022/04/06 00:31:30;;;;;;;7.25;2.30;;;;;;;3.10;58.83;99034.69;2098155;28;20717;-66
2022/04/06 00:32:33;;;;;;;5.07;1.83;;;;;;;2.89;59.07;99036.09;2080964;28;20334;-66
2022/04/06 00:33:36;;;;;;;7.70;1.80;;;;;;;3.19;58.69;99030.28;2074347;28;20268;-66
2022/04/06 00:36:02;;;;;;;6.72;2.47;;;;;;;3.25;58.05;99036.31;2089852;28;20299;-66
2022/04/06 00:37:04;;;;;;;4.60;1.90;;;;;;;3.29;58.29;99036.53;2100544;28;20297;-66
2022/04/06 00:38:16;;;;;;;6.90;2.30;;;;;;;3.47;57.82;99033.00;2080308;28;20295;-67
2022/04/06 00:39:19;;;;;;;7.28;2.35;;;;;;;3.56;57.47;99039.22;2074912;28;20372;-65
2022/04/06 00:40:22;;;;;;;4.20;2.00;;;;;;;3.55;57.73;99036.88;2096183;28;20794;-66
2022/04/06 00:41:27;;;;;;;4.93;2.20;;;;;;;3.49;57.66;99030.81;2097412;28;20281;-66
2022/04/06 00:42:31;;;;;;;7.72;1.65;;;;;;;3.60;57.61;99037.56;2081824;28;20295;-66
2022/04/06 00:43:34;;;;;;;4.15;1.85;;;;;;;3.71;57.42;99032.03;2082113;28;20284;-66
2022/04/06 00:44:41;;;;;;;5.60;2.28;;;;;;;3.66;57.38;99030.25;2080704;28;20311;-66
2022/04/06 00:45:48;;;;;;;5.05;1.90;;;;;;;3.68;57.24;99033.41;2082781;28;20284;-66
2022/04/06 00:46:50;;;;;;;7.47;2.00;;;;;;;3.65;57.56;99028.66;2098618;28;20287;-67
2022/04/06 00:48:07;;;;;;;4.35;2.00;;;;;;;3.80;57.30;99035.59;2105220;28;20293;-66
2022/04/06 00:49:14;;;;;;;5.00;2.20;;;;;;;3.72;57.08;99039.75;2073073;28;20288;-66
2022/04/06 00:50:18;;;;;;;7.03;2.25;;;;;;;3.72;57.02;99041.63;2083936;28;20292;-66
2022/04/06 00:51:19;;;;;;;5.55;2.08;;;;;;;3.61;57.63;99039.16;2097205;28;20299;-66
2022/04/06 00:52:30;;;;;;;6.93;2.20;;;;;;;3.63;57.37;99039.66;2089805;28;20283;-66
2022/04/06 00:53:33;;;;;;;6.30;2.10;;;;;;;3.34;58.26;99050.59;2096886;28;20278;-66
2022/04/06 00:54:39;;;;;;;6.90;2.00;;;;;;;3.36;58.59;99042.28;2089373;28;20299;-65
2022/04/06 00:55:46;;;;;;;5.32;1.77;;;;;;;3.66;58.20;99049.78;2090759;28;20319;-66
2022/04/06 00:56:49;;;;;;;8.15;2.10;;;;;;;3.70;57.44;99049.19;2098702;28;20279;-66
2022/04/06 00:57:54;;;;;;;4.55;1.83;;;;;;;3.69;57.64;99050.25;2089437;28;20295;-67
2022/04/06 00:58:57;;;;;;;4.60;2.03;;;;;;;3.75;57.44;99049.84;2082259;28;20644;-66
2022/04/06 01:00:06;;;;;;;7.63;2.63;;;;;;;3.28;58.64;99042.94;2082083;28;20319;-66
2022/04/06 01:01:10;;;;;;;5.82;2.28;;;;;;;3.24;58.91;99045.41;2084023;28;20779;-66
2022/04/06 01:02:12;;;;;;;6.25;1.90;;;;;;;3.55;58.68;99051.03;2089418;28;20794;-66
2022/04/06 01:03:14;;;;;;;5.57;2.22;;;;;;;3.70;58.08;99043.81;2097762;28;20290;-66
2022/04/06 01:04:18;;;;;;;8.60;1.98;;;;;;;3.78;58.00;99048.47;2097701;28;20293;-66
2022/04/06 01:05:25;;;;;;;6.05;1.67;;;;;;;3.58;58.22;99050.44;2097785;28;20290;-66
2022/04/06 01:06:27;;;;;;;4.55;1.88;;;;;;;3.61;58.13;99055.19;2097993;28;20770;-66
2022/04/06 01:07:36;;;;;;;6.47;2.00;;;;;;;3.63;58.23;99055.72;2097601;28;20287;-66
2022/04/06 01:08:39;;;;;;;5.45;1.70;;;;;;;3.59;58.24;99053.91;2090401;28;20299;-66
2022/04/06 01:09:41;;;;;;;6.25;2.15;;;;;;;3.58;58.19;99061.13;2097793;28;20302;-66
2022/04/06 01:10:44;;;;;;;5.50;1.93;;;;;;;3.54;58.27;99052.13;2092113;28;20295;-66
2022/04/06 01:11:50;;;;;;;7.25;1.80;;;;;;;3.51;58.59;99054.59;2089348;28;20907;-66
2022/04/06 01:12:57;;;;;;;4.88;1.95;;;;;;;3.70;58.36;99052.63;2083635;28;20294;-66
2022/04/06 01:14:06;;;;;;;3.47;1.73;;;;;;;3.62;58.76;99056.00;2105986;28;20303;-66
2022/04/06 01:15:13;;;;;;;6.35;2.20;;;;;;;3.68;58.46;99062.03;2106465;28;20286;-66
2022/04/06 01:16:17;;;;;;;5.05;1.83;;;;;;;3.65;58.46;99056.19;2106033;28;20761;-67
2022/04/06 01:17:22;;;;;;;5.82;2.47;;;;;;;3.80;58.16;99054.34;2113674;28;20281;-66
2022/04/06 01:18:24;;;;;;;8.82;2.13;;;;;;;3.85;58.09;99060.38;2097215;28;20298;-66
2022/04/06 01:19:40;;;;;;;5.57;2.00;;;;;;;3.57;58.88;99064.91;2097038;28;21040;-67
2022/04/06 01:20:46;;;;;;;4.70;1.70;;;;;;;3.75;58.22;99059.75;2096800;28;20634;-66
2022/04/06 01:21:50;;;;;;;6.05;2.10;;;;;;;3.75;58.49;99065.13;2098259;28;20279;-66
2022/04/06 01:22:55;;;;;;;4.43;2.03;;;;;;;3.92;58.37;99065.34;2089162;28;20291;-66
2022/04/06 01:24:01;;;;;;;5.03;2.13;;;;;;;3.79;58.15;99066.13;2098164;28;20289;-67
2022/04/06 01:25:06;;;;;;;4.72;1.92;;;;;;;3.90;58.07;99062.16;2104053;28;20301;-67
2022/04/06 01:26:12;;;;;;;5.68;1.95;;;;;;;3.86;57.88;99059.28;2097715;28;20809;-67
2022/04/06 01:27:18;;;;;;;6.05;1.80;;;;;;;4.03;57.54;99060.56;2097350;28;20294;-67
2022/04/06 01:28:21;;;;;;;5.18;2.00;;;;;;;4.11;57.58;99068.69;2097058;28;20283;-65
2022/04/06 01:29:23;;;;;;;4.53;2.08;;;;;;;4.10;57.44;99067.13;2097049;28;20286;-66
2022/04/06 01:30:28;;;;;;;3.05;1.85;;;;;;;3.96;57.84;99071.69;2097302;28;20290;-66
2022/04/06 01:31:32;;;;;;;6.47;1.90;;;;;;;3.72;58.47;99063.03;2096583;28;20290;-66
2022/04/06 01:32:37;;;;;;;4.82;2.15;;;;;;;3.81;58.27;99069.28;2082405;28;20303;-65
2022/04/06 01:33:40;;;;;;;6.85;2.08;;;;;;;3.99;58.11;99070.28;2097298;28;20349;-66
2022/04/06 01:34:44;;;;;;;4.70;2.20;;;;;;;3.99;57.46;99065.72;2096836;28;20325;-66
2022/04/06 01:35:50;;;;;;;4.50;2.00;;;;;;;3.97;57.59;99078.59;2082966;28;20292;-66
2022/04/06 01:36:57;;;;;;;5.45;2.10;;;;;;;3.91;57.68;99077.13;2088985;28;20897;-66
2022/04/06 01:37:59;;;;;;;4.45;2.17;;;;;;;3.93;57.88;99077.63;2081651;28;20307;-66
2022/04/06 01:39:04;;;;;;;6.03;2.20;;;;;;;3.94;57.88;99073.84;2089149;28;20295;-66
2022/04/06 01:40:08;;;;;;;6.60;2.05;;;;;;;3.88;58.05;99072.34;2097993;28;20285;-66
2022/04/06 01:41:12;;;;;;;6.97;1.90;;;;;;;3.81;58.16;99080.00;2096374;28;20290;-66
2022/04/06 01:42:19;;;;;;;3.97;1.90;;;;;;;3.90;57.99;99080.88;2089158;28;20299;-66
2022/04/06 01:43:24;;;;;;;4.65;2.20;;;;;;;3.95;57.73;99077.34;2080735;28;20295;-67
2022/04/06 01:44:32;;;;;;;8.05;2.42;;;;;;;4.02;57.69;99083.09;2074846;28;20275;-67
2022/04/06 01:45:34;;;;;;;7.75;2.10;;;;;;;3.97;57.81;99072.47;2089796;28;20755;-66
2022/04/06 01:46:40;;;;;;;6.28;2.30;;;;;;;4.02;57.51;99077.72;2089114;28;20287;-67
2022/04/06 01:47:46;;;;;;;6.50;2.05;;;;;;;4.03;57.65;99073.94;2065459;28;20290;-66
2022/04/06 01:53:03;;;;;;;4.43;1.83;;;;;;;3.68;59.05;99076.22;2080740;28;20288;-66
2022/04/06 01:54:08;;;;;;;4.43;2.03;;;;;;;3.73;58.56;99078.00;2081326;28;20318;-66
2022/04/06 01:55:18;;;;;;;5.97;2.00;;;;;;;3.90;58.06;99084.34;2089033;28;20306;-66
2022/04/06 01:56:20;;;;;;;6.13;1.92;;;;;;;3.87;58.71;99084.94;2082093;28;20284;-66
2022/04/06 01:57:23;;;;;;;7.70;1.60;;;;;;;3.99;58.32;99086.34;2089139;28;20283;-66
2022/04/06 01:58:31;;;;;;;4.93;2.10;;;;;;;4.11;58.19;99086.66;2088974;28;20295;-66
2022/04/06 01:59:37;;;;;;;4.53;1.92;;;;;;;3.99;58.06;99092.50;2088635;28;20291;-66
2022/04/06 02:00:42;;;;;;;4.80;1.83;;;;;;;4.13;57.73;99093.31;2089497;28;20286;-66
2022/04/06 02:03:00;;;;;;;4.40;2.13;;;;;;;4.12;57.71;99091.69;2113608;27;20126;-67
2022/04/06 02:04:13;;;;;;;7.20;2.13;;;;;;;4.22;57.50;99090.69;2104456;28;20297;-66
2022/04/06 02:05:16;;;;;;;5.90;1.70;;;;;;;4.23;57.17;99091.47;2106455;28;20298;-67
2022/04/06 02:06:21;;;;;;;6.03;2.00;;;;;;;4.24;57.42;99087.75;2112571;28;20286;-67
2022/04/06 02:07:27;;;;;;;8.43;2.30;;;;;;;4.17;57.36;99098.06;2096977;28;20299;-67
2022/04/06 02:08:31;;;;;;;7.68;2.00;;;;;;;4.19;57.56;99098.53;2097117;28;20278;-68
2022/04/06 02:09:36;;;;;;;5.93;1.80;;;;;;;4.18;57.28;99103.09;2105021;28;20286;-68
2022/04/06 02:10:41;;;;;;;7.55;2.15;;;;;;;4.21;57.28;99101.72;2113526;27;20769;-67
2022/04/06 02:11:45;;;;;;;5.53;1.90;;;;;;;4.09;57.76;99092.28;2113910;28;20286;-67
2022/04/06 02:12:52;;;;;;;10.10;2.28;;;;;;;4.19;57.55;99101.22;2112744;28;20274;-67
2022/04/06 02:13:57;;;;;;;7.07;2.15;;;;;;;4.19;57.57;99104.69;2088676;28;20287;-67
2022/04/06 02:15:03;;;;;;;6.85;1.85;;;;;;;4.12;57.20;99101.63;2098445;28;20282;-68
2022/04/06 02:16:05;;;;;;;6.00;1.98;;;;;;;4.20;57.84;99102.81;2112619;28;20638;-67
2022/04/06 02:17:09;;;;;;;4.82;2.53;;;;;;;4.20;57.59;99098.25;2112715;28;20284;-67
2022/04/06 02:18:12;;;;;;;5.30;2.30;;;;;;;4.10;57.57;99099.25;2107021;28;20278;-69
2022/04/06 02:19:15;;;;;;;5.47;2.30;;;;;;;4.11;57.57;99108.06;2085557;28;20319;-68
2022/04/06 02:20:17;;;;;;;9.00;2.30;;;;;;;4.04;57.71;99104.97;2080271;28;20280;-68
2022/04/06 02:21:20;;;;;;;6.38;2.28;;;;;;;3.87;57.99;99094.84;2096434;28;20290;-68
2022/04/06 02:22:25;;;;;;;5.40;1.98;;;;;;;3.97;58.49;99094.66;2096110;28;20298;-67
2022/04/06 02:23:30;;;;;;;6.95;2.20;;;;;;;4.14;57.85;99104.78;2096574;28;20323;-68
2022/04/06 02:24:35;;;;;;;5.63;2.35;;;;;;;4.11;58.07;99100.81;2104996;28;20298;-67
2022/04/06 02:25:40;;;;;;;5.38;2.50;;;;;;;4.22;57.64;99097.94;2103446;28;20757;-67
2022/04/06 02:26:46;;;;;;;5.68;2.22;;;;;;;4.02;57.79;99104.50;2096388;28;20295;-67
2022/04/06 02:27:53;;;;;;;6.50;2.55;;;;;;;3.95;58.16;99107.56;2104343;28;20777;-67
2022/04/06 02:28:57;;;;;;;5.63;2.25;;;;;;;3.99;58.20;99105.88;2104822;28;20286;-68
2022/04/06 02:30:04;;;;;;;7.95;2.28;;;;;;;4.20;57.65;99113.53;2095923;28;20271;-68
2022/04/06 02:31:07;;;;;;;7.38;2.30;;;;;;;4.26;57.53;99101.59;2089612;28;20683;-67
2022/04/06 02:32:12;;;;;;;7.22;2.00;;;;;;;4.30;57.29;99102.63;2104233;28;20290;-67
2022/04/06 02:33:13;;;;;;;9.00;2.28;;;;;;;4.18;57.54;99107.66;2096464;28;20302;-67
2022/04/06 02:34:22;;;;;;;5.97;2.20;;;;;;;4.05;57.92;99112.72;2104111;28;20650;-67
2022/04/06 02:35:27;;;;;;;9.25;2.50;;;;;;;4.20;57.77;99102.81;2112929;28;20282;-67
2022/04/06 02:36:30;;;;;;;5.80;2.10;;;;;;;4.19;57.44;99096.66;2103980;28;20301;-67
2022/04/06 02:37:35;;;;;;;5.32;2.08;;;;;;;4.06;57.75;99100.91;2088563;28;20292;-67
2022/04/06 02:38:39;;;;;;;7.43;2.13;;;;;;;3.98;58.08;99100.84;2088390;28;20280;-66
2022/04/06 02:39:43;;;;;;;6.45;2.55;;;;;;;3.79;58.05;99108.94;2080745;28;20284;-64
2022/04/06 02:40:46;;;;;;;5.20;2.20;;;;;;;3.85;58.08;99103.19;2088746;28;20288;-67
2022/04/06 02:41:48;;;;;;;5.68;2.00;;;;;;;4.00;58.04;99104.78;2104516;28;20381;-67
2022/04/06 02:42:53;;;;;;;5.90;2.10;;;;;;;3.88;57.87;99105.28;2096429;28;20305;-66
2022/04/06 02:44:00;;;;;;;5.20;2.55;;;;;;;4.10;57.45;99109.13;2104587;28;20290;-67
2022/04/06 02:45:08;;;;;;;5.20;2.47;;;;;;;4.09;57.78;99103.00;2104624;28;20297;-66
2022/04/06 02:46:18;;;;;;;4.93;2.40;;;;;;;4.10;57.08;99093.06;2098816;28;20268;-68
2022/04/06 02:47:21;;;;;;;6.85;2.47;;;;;;;4.20;57.06;99100.94;2112878;28;20035;-67
2022/04/06 02:48:26;;;;;;;7.57;2.35;;;;;;;4.19;56.83;99104.69;2112633;28;20289;-67
2022/04/06 02:49:38;;;;;;;5.95;2.92;;;;;;;4.22;56.89;99103.28;2112751;28;20332;-67
2022/04/06 02:50:42;;;;;;;6.80;2.58;;;;;;;4.24;56.62;99103.81;2112110;28;20380;-66
2022/04/06 02:51:49;;;;;;;5.07;2.67;;;;;;;4.27;56.49;99098.63;2096677;28;20295;-67
2022/04/06 02:52:56;;;;;;;6.82;2.55;;;;;;;4.25;56.49;99094.66;2113209;28;20285;-66
2022/04/06 02:53:58;;;;;;;5.10;2.05;;;;;;;4.26;56.80;99104.28;2121355;27;20281;-67
2022/04/06 02:55:04;;;;;;;12.32;2.67;;;;;;;4.24;56.27;99093.88;2120988;28;20292;-67
2022/04/06 02:56:11;;;;;;;6.45;2.58;;;;;;;4.22;56.24;99098.72;2113539;28;20293;-67
2022/04/06 02:57:14;;;;;;;4.80;2.13;;;;;;;4.16;56.03;99107.94;2121064;27;20280;-68
2022/04/06 02:58:20;;;;;;;6.20;2.55;;;;;;;4.20;56.34;99108.97;2103911;28;20701;-67
2022/04/06 02:59:23;;;;;;;9.55;2.33;;;;;;;4.25;56.00;99100.81;2104732;28;20278;-67
2022/04/06 03:00:32;;;;;;;5.82;2.33;;;;;;;4.26;55.96;99098.94;2120399;28;20288;-67
2022/04/06 03:01:40;;;;;;;4.32;2.13;;;;;;;4.12;56.42;99109.66;2097310;28;20288;-67
2022/04/06 03:02:46;;;;;;;8.40;2.67;;;;;;;4.12;56.46;99101.63;2104105;28;20048;-67
2022/04/06 03:03:50;;;;;;;6.30;2.30;;;;;;;4.18;56.56;99103.09;2104028;28;20282;-67
2022/04/06 03:04:57;;;;;;;4.32;2.03;;;;;;;4.24;55.96;99106.47;2103548;28;20282;-67
2022/04/06 03:06:02;;;;;;;6.40;2.50;;;;;;;4.20;55.96;99102.81;2095794;28;20290;-67
2022/04/06 03:07:07;;;;;;;4.27;2.50;;;;;;;4.20;55.87;99108.19;2080529;28;20300;-67
2022/04/06 03:08:10;;;;;;;8.57;2.42;;;;;;;4.19;56.25;99101.22;2079769;28;20292;-67
2022/04/06 03:09:16;;;;;;;8.27;2.63;;;;;;;4.14;56.09;99099.44;2080870;28;20288;-68
2022/04/06 03:10:21;;;;;;;5.63;2.35;;;;;;;4.16;56.04;99101.81;2097191;28;20278;-68
2022/04/06 03:11:26;;;;;;;8.07;2.80;;;;;;;4.19;56.04;99115.38;2115111;28;20312;-67
2022/04/06 03:12:32;;;;;;;9.38;2.55;;;;;;;4.16;56.19;99112.53;2120809;28;20321;-67
2022/04/06 03:13:37;;;;;;;7.18;2.58;;;;;;;4.16;55.96;99109.84;2120148;27;20625;-66
2022/04/06 03:14:40;;;;;;;6.95;2.45;;;;;;;3.91;56.56;99106.56;2106718;28;20278;-67
2022/04/06 03:15:45;;;;;;;5.00;2.13;;;;;;;3.83;57.10;99102.69;2100155;28;20275;-67
2022/04/06 03:16:48;;;;;;;6.47;2.50;;;;;;;4.00;56.59;99112.81;2114662;28;20288;-67
2022/04/06 03:17:55;;;;;;;9.93;2.40;;;;;;;3.95;56.60;99112.13;2103586;28;20287;-67
2022/04/06 03:19:01;;;;;;;5.85;2.40;;;;;;;3.84;56.90;99112.28;2102428;28;20356;-67
2022/04/06 03:20:07;;;;;;;4.70;2.17;;;;;;;3.91;56.94;99109.22;2097956;28;20290;-67
2022/04/06 03:21:16;;;;;;;7.28;2.80;;;;;;;3.76;57.26;99113.00;2092050;28;20279;-67
2022/04/06 03:22:21;;;;;;;7.00;2.72;;;;;;;3.55;57.55;99114.44;2098028;28;20298;-67
2022/04/06 03:23:25;;;;;;;5.80;1.90;;;;;;;3.49;57.80;99116.38;2098826;28;20063;-67
2022/04/06 03:25:36;;;;;;;6.57;2.30;;;;;;;3.47;58.00;99112.41;2121877;27;20108;-67
2022/04/06 03:26:43;;;;;;;7.35;2.00;;;;;;;3.42;58.22;99111.41;2112976;28;20292;-67
2022/04/06 03:28:50;;;;;;;9.50;2.17;;;;;;;3.41;58.59;99114.41;2122163;27;20422;-66
2022/04/06 03:29:55;;;;;;;2.92;2.05;;;;;;;3.64;58.02;99118.03;2112795;28;20281;-65
2022/04/06 03:30:58;;;;;;;7.22;2.30;;;;;;;3.74;57.57;99114.38;2105115;28;20294;-65
2022/04/06 03:32:05;;;;;;;9.10;2.20;;;;;;;3.66;57.71;99118.53;2105033;28;20290;-65
2022/04/06 03:33:09;;;;;;;7.22;2.30;;;;;;;3.79;57.11;99122.31;2104753;28;20282;-66
2022/04/06 03:34:15;;;;;;;6.25;2.17;;;;;;;3.52;58.20;99118.47;2096286;28;20278;-65
2022/04/06 03:35:22;;;;;;;6.13;2.00;;;;;;;3.64;57.98;99120.69;2088436;28;20291;-66
2022/04/06 03:36:27;;;;;;;7.53;2.75;;;;;;;3.56;58.16;99116.78;2088447;28;20292;-66
2022/04/06 03:37:34;;;;;;;8.57;2.08;;;;;;;3.76;57.55;99112.22;2081006;28;20283;-66
2022/04/06 03:38:37;;;;;;;5.25;2.45;;;;;;;3.74;57.27;99117.84;2096374;28;20302;-66
2022/04/06 03:39:39;;;;;;;10.77;2.63;;;;;;;3.82;57.42;99113.69;2104474;28;20286;-66
2022/04/06 03:41:49;;;;;;;4.57;1.83;;;;;;;3.82;57.27;99113.69;2122168;27;20167;-67
2022/04/06 03:44:15;;;;;;;4.20;2.03;;;;;;;3.74;57.25;99106.34;2113617;27;20185;-66
2022/04/06 03:45:18;;;;;;;5.10;2.28;;;;;;;3.90;56.83;99110.31;2112511;28;20304;-67
2022/04/06 03:46:20;;;;;;;7.90;2.67;;;;;;;4.03;56.74;99114.09;2103844;28;20298;-67
2022/04/06 03:47:35;;;;;;;5.57;2.30;;;;;;;4.03;56.57;99117.56;2088865;28;20275;-69
2022/04/06 03:48:38;;;;;;;6.85;2.10;;;;;;;4.08;56.67;99122.84;2099205;28;20275;-69
2022/04/06 03:49:40;;;;;;;10.13;2.13;;;;;;;4.12;56.29;99120.34;2104482;28;20287;-68
2022/04/06 03:50:46;;;;;;;8.38;1.92;;;;;;;3.84;57.05;99122.22;2113391;28;20294;-69
2022/04/06 03:51:49;;;;;;;7.15;2.13;;;;;;;3.82;56.72;99127.09;2087886;28;20306;-68
2022/04/06 03:52:50;;;;;;;5.10;2.42;;;;;;;3.91;56.84;99130.63;2096339;28;20287;-68
2022/04/06 03:53:54;;;;;;;4.10;1.88;;;;;;;4.00;56.40;99134.22;2104454;28;20662;-68
2022/04/06 03:54:56;;;;;;;4.95;1.98;;;;;;;4.02;56.65;99126.69;2104757;28;20313;-68
2022/04/06 03:57:08;;;;;;;3.75;1.90;;;;;;;3.64;57.60;99118.81;2121699;27;20104;-68
2022/04/06 03:58:10;;;;;;;8.07;2.17;;;;;;;3.90;57.05;99126.38;2112924;28;20278;-68
2022/04/06 03:59:12;;;;;;;7.43;2.55;;;;;;;3.89;56.96;99130.16;2111979;28;20277;-68
2022/04/06 04:00:18;;;;;;;5.60;2.00;;;;;;;3.79;56.72;99130.34;2112452;28;20282;-68
2022/04/06 04:01:21;;;;;;;6.00;1.83;;;;;;;3.75;57.05;99123.97;2112177;28;20282;-69
2022/04/06 04:02:28;;;;;;;6.60;2.38;;;;;;;3.75;57.32;99132.00;2104237;28;20650;-68
2022/04/06 04:04:32;;;;;;;8.35;2.47;;;;;;;3.95;56.50;99133.53;2096888;28;20394;-70
2022/04/06 04:05:37;;;;;;;6.45;2.25;;;;;;;3.93;56.64;99139.19;2087423;28;20284;-69
2022/04/06 04:06:44;;;;;;;8.55;2.50;;;;;;;3.71;57.14;99137.16;2080833;28;20284;-69
2022/04/06 04:11:04;;;;;;;9.80;2.22;;;;;;;3.47;57.71;99142.66;2122042;27;20123;-68
2022/04/06 04:12:09;;;;;;;8.35;2.47;;;;;;;3.54;57.99;99140.38;2112771;28;20777;-68
2022/04/06 04:14:16;;;;;;;6.15;2.40;;;;;;;3.99;57.42;99140.66;2121991;27;20168;-69
2022/04/06 04:15:17;;;;;;;7.20;2.05;;;;;;;3.86;56.92;99142.25;2113068;28;20692;-69
2022/04/06 04:16:20;;;;;;;6.95;2.15;;;;;;;3.63;57.64;99135.97;2104202;28;20289;-69
2022/04/06 04:17:25;;;;;;;5.88;2.05;;;;;;;3.53;57.64;99140.66;2103920;28;20653;-67
2022/04/06 04:18:30;;;;;;;7.38;2.35;;;;;;;3.35;58.19;99136.97;2103176;28;20293;-69
2022/04/06 04:19:33;;;;;;;9.13;2.30;;;;;;;3.29;58.27;99135.44;2117404;28;20285;-69
2022/04/06 04:20:40;;;;;;;4.53;2.28;;;;;;;3.27;58.94;99146.41;2111238;28;20316;-69
2022/04/06 04:21:42;;;;;;;7.05;2.40;;;;;;;3.29;59.13;99149.59;2095315;28;20295;-68
2022/04/06 04:22:46;;;;;;;6.97;2.17;;;;;;;3.49;58.36;99145.81;2103288;28;20294;-70
2022/04/06 04:23:51;;;;;;;6.55;2.03;;;;;;;3.56;58.51;99146.22;2102071;28;20646;-68
2022/04/06 04:24:58;;;;;;;5.40;2.25;;;;;;;3.68;57.95;99155.69;2112773;27;20785;-67
2022/04/06 04:26:04;;;;;;;10.20;2.75;;;;;;;3.88;57.65;99153.44;2119336;27;20289;-68
2022/04/06 04:27:06;;;;;;;6.57;2.42;;;;;;;3.94;57.04;99153.34;2118899;28;20281;-67
2022/04/06 04:28:14;;;;;;;10.27;2.50;;;;;;;4.00;56.83;99150.28;2110638;28;20281;-68
2022/04/06 04:29:18;;;;;;;6.80;2.30;;;;;;;4.03;57.11;99149.69;2095867;28;20298;-67
2022/04/06 04:30:23;;;;;;;8.32;2.30;;;;;;;4.13;56.44;99144.16;2094970;28;20064;-67
2022/04/06 04:31:27;;;;;;;6.22;2.33;;;;;;;3.99;56.15;99145.22;2095106;28;20290;-66
2022/04/06 04:32:29;;;;;;;6.25;2.40;;;;;;;3.90;56.42;99142.44;2094602;28;20291;-67
2022/04/06 04:33:35;;;;;;;10.75;2.80;;;;;;;4.06;56.42;99138.38;2087312;28;20918;-67
2022/04/06 04:34:38;;;;;;;7.78;2.38;;;;;;;4.18;56.17;99143.25;2079837;28;20308;-68
2022/04/06 04:35:43;;;;;;;7.57;2.35;;;;;;;4.19;56.11;99144.06;2096275;28;20302;-67
2022/04/06 04:36:48;;;;;;;6.38;2.45;;;;;;;4.20;56.19;99146.44;2102934;28;20279;-68
2022/04/06 04:37:52;;;;;;;8.18;2.78;;;;;;;4.26;55.95;99144.44;2102884;28;20333;-67
2022/04/06 04:38:58;;;;;;;7.35;2.60;;;;;;;4.28;55.70;99140.38;2086832;28;20296;-68
2022/04/06 04:40:05;;;;;;;7.80;2.88;;;;;;;4.13;55.85;99140.66;2096316;28;20290;-67
2022/04/06 04:41:10;;;;;;;7.40;2.60;;;;;;;4.23;55.90;99145.03;2111501;28;20926;-67
2022/04/06 04:42:14;;;;;;;8.07;2.88;;;;;;;4.07;56.53;99136.50;2094458;28;20298;-68
2022/04/06 04:43:16;;;;;;;8.13;3.17;;;;;;;4.18;56.43;99139.78;2095594;28;20314;-68
2022/04/06 04:44:19;;;;;;;9.45;3.03;;;;;;;4.19;55.96;99144.84;2110248;28;20662;-68
2022/04/06 04:45:20;;;;;;;9.80;2.80;;;;;;;4.27;55.89;99140.69;2102743;28;20302;-67
2022/04/06 04:46:27;;;;;;;7.38;2.92;;;;;;;4.29;55.99;99141.16;2085492;28;20308;-67
2022/04/06 04:47:30;;;;;;;8.65;2.90;;;;;;;4.26;55.63;99145.25;2093764;28;20314;-67
2022/04/06 04:48:33;;;;;;;8.35;3.30;;;;;;;4.25;55.91;99140.19;2094036;28;20290;-67
2022/04/06 04:49:38;;;;;;;7.38;2.80;;;;;;;4.24;55.98;99146.66;2102797;28;20294;-68
2022/04/06 04:50:42;;;;;;;7.40;3.17;;;;;;;4.26;55.70;99141.75;2110982;28;20285;-67
2022/04/06 04:51:46;;;;;;;11.45;3.38;;;;;;;4.20;56.01;99140.31;2087007;28;20337;-68
2022/04/06 04:52:49;;;;;;;10.23;2.85;;;;;;;4.01;56.58;99140.38;2102279;27;20298;-68
2022/04/06 04:53:57;;;;;;;6.10;2.53;;;;;;;3.99;56.64;99139.88;2120333;27;20312;-67
2022/04/06 04:55:00;;;;;;;7.38;2.63;;;;;;;4.07;56.65;99140.00;2128215;27;20288;-67
2022/04/06 04:56:01;;;;;;;11.52;3.08;;;;;;;4.11;56.70;99143.66;2110974;28;20290;-67
2022/04/06 04:57:08;;;;;;;8.60;2.80;;;;;;;4.13;56.75;99146.84;2094488;28;20305;-68
2022/04/06 04:58:11;;;;;;;12.40;3.08;;;;;;;4.11;56.50;99153.59;2095529;28;20334;-67
2022/04/06 04:59:12;;;;;;;9.35;3.05;;;;;;;4.13;56.96;99154.88;2111814;28;20274;-67
2022/04/06 05:00:19;;;;;;;9.73;3.08;;;;;;;4.33;56.38;99160.94;2104274;28;20297;-67
2022/04/06 05:01:28;;;;;;;11.27;3.00;;;;;;;4.47;55.76;99151.03;2103950;28;20282;-67
2022/04/06 05:02:31;;;;;;;6.97;3.15;;;;;;;4.54;55.78;99156.78;2104412;28;20770;-67
2022/04/06 05:03:33;;;;;;;8.38;2.90;;;;;;;4.48;55.63;99152.63;2086674;28;20292;-67
2022/04/06 05:04:36;;;;;;;10.98;3.00;;;;;;;4.45;55.74;99158.59;2086687;28;20290;-68
2022/04/06 05:05:44;;;;;;;10.02;3.65;;;;;;;4.55;55.98;99160.25;2095744;28;20298;-68
2022/04/06 05:06:52;;;;;;;12.43;3.78;;;;;;;4.56;55.80;99159.94;2104685;28;20290;-67
2022/04/06 05:07:59;;;;;;;11.43;3.22;;;;;;;4.55;55.63;99155.69;2103167;28;20745;-67
2022/04/06 05:09:02;;;;;;;7.28;3.33;;;;;;;4.51;55.99;99161.94;2103513;28;20290;-68
2022/04/06 05:10:10;;;;;;;8.82;3.60;;;;;;;4.52;55.90;99158.97;2112088;28;20274;-67
2022/04/06 05:11:15;;;;;;;8.52;2.97;;;;;;;4.58;56.10;99157.78;2110515;28;20439;-67
2022/04/06 05:12:21;;;;;;;11.55;2.90;;;;;;;4.58;55.78;99154.31;2105065;28;20317;-67
2022/04/06 05:13:28;;;;;;;5.78;2.83;;;;;;;4.66;55.37;99158.94;2096186;28;20299;-68
2022/04/06 05:14:32;;;;;;;6.93;3.20;;;;;;;4.63;55.57;99156.88;2085815;28;20657;-67
2022/04/06 05:15:36;;;;;;;11.35;3.22;;;;;;;4.57;56.04;99155.38;2087692;28;20299;-68
2022/04/06 05:16:39;;;;;;;11.38;3.22;;;;;;;4.59;56.02;99159.34;2095232;28;20302;-68
2022/04/06 05:17:41;;;;;;;8.52;3.45;;;;;;;4.54;55.98;99164.00;2097142;28;20291;-68
2022/04/06 05:18:44;;;;;;;11.05;3.60;;;;;;;4.36;56.78;99161.13;2103586;28;20286;-67
2022/04/06 05:19:47;;;;;;;11.07;3.42;;;;;;;4.49;56.41;99159.56;2112662;28;20286;-68
2022/04/06 05:20:55;;;;;;;10.13;3.20;;;;;;;4.61;55.94;99160.94;2102903;28;20721;-68
2022/04/06 05:21:59;;;;;;;8.32;3.13;;;;;;;4.38;56.37;99162.69;2099377;28;20287;-68
2022/04/06 05:23:02;;;;;;;10.05;3.20;;;;;;;4.61;56.01;99166.28;2112527;28;20415;-68
2022/04/06 05:24:06;;;;;;;9.00;3.17;;;;;;;4.72;55.60;99167.69;2112677;28;20282;-68
2022/04/06 05:25:11;;;;;;;9.30;3.40;;;;;;;4.72;55.49;99168.47;2100506;28;20286;-68
2022/04/06 05:26:16;;;;;;;11.05;3.50;;;;;;;4.81;55.43;99174.72;2099412;28;20769;-67